Time;durP1;ratioP1;P1;durP2;ratioP2;P2;SDS_P1;SDS_P2;PMS_P1;PMS_P2;Temp;Humidity;BMP_temperature;BMP_pressure;BME280_temperature;BME280_humidity;BME280_pressure;Samples;Min_cycle;Max_cycle;Signal;HPM_P1;HPM_P2
2021/03/11 00:08:16;;;;;;;1.27;1.17;;;8.10;99.90;;;;;;20631777;28;20227;-74
2021/03/11 00:18:19;;;;;;;2.67;1.23;;;8.80;99.90;;;;;;20616681;28;20497;-74
2021/03/11 00:28:23;;;;;;;2.83;1.10;;;8.60;99.90;;;;;;20615805;28;20226;-75
2021/03/11 00:38:25;;;;;;;0.60;0.60;;;8.60;99.90;;;;;;20616353;28;20502;-74
2021/03/11 00:48:29;;;;;;;6.23;2.77;;;8.30;99.90;;;;;;20614921;28;20231;-75
2021/03/11 00:58:31;;;;;;;0.30;0.30;;;8.30;99.90;;;;;;20629950;28;20472;-73
2021/03/11 01:08:35;;;;;;;5.13;1.57;;;8.30;99.90;;;;;;20625915;23;20708;-70
2021/03/11 01:18:37;;;;;;;3.60;1.30;;;8.90;99.90;;;;;;20611565;28;20195;-70
2021/03/11 01:28:41;;;;;;;1.53;1.43;;;9.20;99.90;;;;;;20613808;28;20310;-70
2021/03/11 01:38:43;;;;;;;1.00;0.90;;;9.60;99.90;;;;;;20612309;28;20553;-70
2021/03/11 01:48:47;;;;;;;0.87;0.87;;;8.90;99.90;;;;;;20612373;28;20234;-71
2021/03/11 01:58:50;;;;;;;1.23;0.90;;;8.50;99.90;;;;;;20613806;28;20661;-69
2021/03/11 02:08:53;;;;;;;0.53;0.53;;;7.90;99.90;;;;;;20547638;23;20232;-69
2021/03/11 02:19:07;;;;;;;1.03;0.57;;;8.20;99.90;;;;;;20531662;28;20193;-69
2021/03/11 02:29:14;;;;;;;0.87;0.67;;;7.80;99.90;;;;;;20535708;28;20249;-69
2021/03/11 02:39:20;;;;;;;1.17;1.13;;;7.30;99.90;;;;;;20546001;28;20291;-69
2021/03/11 02:49:24;;;;;;;1.33;1.23;;;8.20;99.90;;;;;;20545360;28;20283;-69
2021/03/11 02:59:28;;;;;;;0.73;0.60;;;7.70;99.90;;;;;;20556958;23;20196;-70
2021/03/11 03:09:32;;;;;;;3.27;1.73;;;7.60;99.90;;;;;;20624916;28;20662;-70
2021/03/11 03:19:37;;;;;;;0.40;0.40;;;9.20;99.90;;;;;;20623141;28;20326;-69
2021/03/11 03:29:42;;;;;;;3.73;1.97;;;9.80;99.90;;;;;;20621895;28;20274;-68
2021/03/11 03:39:44;;;;;;;0.80;0.70;;;10.30;99.90;;;;;;20619544;28;20203;-67
2021/03/11 03:49:49;;;;;;;5.50;2.53;;;10.40;99.90;;;;;;20620492;28;20488;-68
2021/03/11 03:59:55;;;;;;;1.63;1.50;;;10.40;99.90;;;;;;20618605;28;20231;-69
2021/03/11 04:09:58;;;;;;;2.23;1.47;;;10.60;99.90;;;;;;20620036;28;20230;-69
2021/03/11 04:20:03;;;;;;;2.90;1.57;;;10.40;99.90;;;;;;20630417;28;20198;-67
2021/03/11 04:30:08;;;;;;;2.20;1.93;;;10.20;99.90;;;;;;20616777;28;20231;-68
2021/03/11 04:40:12;;;;;;;2.53;0.87;;;10.40;99.90;;;;;;20613393;28;20188;-68
2021/03/11 04:50:15;;;;;;;3.70;1.47;;;10.60;99.90;;;;;;20615546;28;20705;-68
2021/03/11 05:00:19;;;;;;;5.30;1.20;;;10.50;99.90;;;;;;20612613;28;20291;-69
2021/03/11 05:10:23;;;;;;;3.80;2.00;;;10.20;99.90;;;;;;20613381;28;20247;-69
2021/03/11 05:20:26;;;;;;;1.40;1.30;;;10.00;99.90;;;;;;20611806;28;20206;-69
2021/03/11 05:30:29;;;;;;;7.40;1.60;;;10.00;99.90;;;;;;20611988;28;20338;-69
2021/03/11 05:40:32;;;;;;;2.13;1.60;;;9.90;99.90;;;;;;20609518;28;20187;-67
2021/03/11 05:50:37;;;;;;;9.93;1.40;;;9.60;99.90;;;;;;20610457;28;20234;-70
2021/03/11 06:00:40;;;;;;;3.80;1.73;;;9.30;99.90;;;;;;20622148;28;20338;-69
2021/03/11 06:10:44;;;;;;;1.90;1.80;;;9.30;99.90;;;;;;20609616;28;20450;-68
2021/03/11 06:20:47;;;;;;;1.20;0.67;;;9.00;99.90;;;;;;20606742;28;20661;-69
2021/03/11 06:30:51;;;;;;;0.63;0.63;;;8.80;99.90;;;;;;20608007;28;20249;-69
2021/03/11 06:40:54;;;;;;;1.60;1.10;;;8.70;99.90;;;;;;20604372;28;20214;-70
2021/03/11 06:50:58;;;;;;;2.10;1.33;;;9.00;99.90;;;;;;20606690;28;20527;-68
2021/03/11 07:01:05;;;;;;;2.10;1.50;;;9.60;99.90;;;;;;20600588;28;20230;-69
2021/03/11 07:11:09;;;;;;;2.27;1.97;;;10.30;99.90;;;;;;20605561;28;20875;-69
2021/03/11 07:21:13;;;;;;;0.73;0.60;;;10.60;99.90;;;;;;20618358;28;20278;-69
2021/03/11 07:31:27;;;;;;;4.03;1.63;;;11.30;99.90;;;;;;20620313;28;20231;-70
2021/03/11 07:41:30;;;;;;;1.33;1.13;;;11.70;99.90;;;;;;20618635;28;20278;-69
2021/03/11 07:51:34;;;;;;;3.67;2.17;;;11.80;99.90;;;;;;20616390;28;20238;-68
2021/03/11 08:01:47;;;;;;;1.57;1.33;;;12.20;99.90;;;;;;20634088;28;20231;-69
2021/03/11 08:11:56;;;;;;;0.73;0.70;;;13.30;99.90;;;;;;20617530;28;20250;-69
2021/03/11 08:21:58;;;;;;;1.63;1.53;;;13.90;99.90;;;;;;20613872;28;20239;-69
2021/03/11 08:32:02;;;;;;;1.17;1.03;;;12.90;99.90;;;;;;20613378;28;20231;-70
2021/03/11 08:42:48;;;;;;;1.00;0.90;;;12.90;99.90;;;;;;20614522;28;20221;-70
2021/03/11 08:52:52;;;;;;;1.50;1.07;;;13.20;99.90;;;;;;20610754;28;20302;-73
2021/03/11 09:02:55;;;;;;;2.17;1.83;;;13.40;99.90;;;;;;20612760;28;20227;-69
2021/03/11 09:12:59;;;;;;;2.50;1.53;;;14.40;99.90;;;;;;20609641;28;20231;-70
2021/03/11 09:23:04;;;;;;;2.50;1.57;;;15.20;99.90;;;;;;20608979;28;20246;-69
2021/03/11 09:33:09;;;;;;;1.67;1.57;;;15.40;99.90;;;;;;20609167;28;20230;-69
2021/03/11 09:43:17;;;;;;;5.47;3.00;;;14.50;99.90;;;;;;20532859;28;20278;-69
2021/03/11 09:53:21;;;;;;;3.17;2.27;;;14.80;99.90;;;;;;20541736;28;20232;-70
2021/03/11 10:03:26;;;;;;;1.60;1.50;;;15.00;99.90;;;;;;20526625;28;20306;-71
2021/03/11 10:13:34;;;;;;;4.07;3.53;;;15.30;99.90;;;;;;20551016;28;20223;-69
2021/03/11 10:23:38;;;;;;;5.53;2.73;;;15.60;99.90;;;;;;20607276;28;20196;-69
2021/03/11 10:33:43;;;;;;;2.47;2.27;;;15.80;99.90;;;;;;20571837;28;20234;-75
2021/03/11 10:43:46;;;;;;;2.93;1.90;;;15.60;99.90;;;;;;20535549;28;20262;-74
2021/03/11 10:54:22;;;;;;;3.97;1.20;;;15.90;99.90;;;;;;20594119;28;20382;-76
2021/03/11 11:04:26;;;;;;;2.83;1.57;;;15.90;99.90;;;;;;20620978;28;20747;-73
2021/03/11 11:14:30;;;;;;;2.67;1.33;;;15.90;99.90;;;;;;20624614;28;20575;-74
2021/03/11 11:24:36;;;;;;;3.40;1.67;;;15.50;99.90;;;;;;20619975;28;20295;-79
2021/03/11 11:34:39;;;;;;;2.43;1.77;;;17.10;99.90;;;;;;20621030;28;20490;-74
2021/03/11 11:44:46;;;;;;;5.57;1.83;;;16.50;99.90;;;;;;20618525;28;20223;-75
2021/03/11 11:54:51;;;;;;;1.53;1.43;;;17.50;99.90;;;;;;20618664;28;20250;-74
2021/03/11 12:04:55;;;;;;;2.70;2.00;;;17.70;99.90;;;;;;20615084;28;20637;-73
2021/03/11 12:14:59;;;;;;;2.73;2.03;;;17.70;99.90;;;;;;20617942;28;20582;-73
2021/03/11 12:25:02;;;;;;;3.00;1.80;;;18.10;99.90;;;;;;20614490;28;20338;-76
2021/03/11 12:35:09;;;;;;;1.70;1.60;;;18.40;99.90;;;;;;20629230;28;20258;-77
2021/03/11 12:45:30;;;;;;;3.20;2.03;;;17.90;99.90;;;;;;20615519;28;20565;-74
2021/03/11 12:56:05;;;;;;;4.40;2.90;;;17.80;99.90;;;;;;20610853;28;20254;-73
2021/03/11 13:06:08;;;;;;;3.27;2.37;;;18.70;99.90;;;;;;20614517;28;20227;-73
2021/03/11 13:16:12;;;;;;;3.60;2.30;;;19.00;99.90;;;;;;20612972;28;20195;-76
2021/03/11 13:26:20;;;;;;;2.07;1.87;;;18.90;99.90;;;;;;20607051;28;20203;-76
2021/03/11 13:36:24;;;;;;;2.70;2.10;;;18.60;99.90;;;;;;20608253;28;20619;-73
2021/03/11 13:46:27;;;;;;;6.03;2.53;;;18.60;99.90;;;;;;20608866;28;20681;-73
2021/03/11 13:56:38;;;;;;;3.37;2.10;;;18.30;99.90;;;;;;20609713;28;20622;-77
2021/03/11 14:06:40;;;;;;;2.13;1.57;;;18.60;99.90;;;;;;20607058;28;20235;-78
2021/03/11 14:16:44;;;;;;;2.77;2.57;;;19.70;99.90;;;;;;20608473;28;20203;-76
2021/03/11 14:26:48;;;;;;;3.03;1.67;;;19.20;99.90;;;;;;20617909;28;20211;-75
2021/03/11 14:36:51;;;;;;;24.87;2.03;;;20.30;99.90;;;;;;20629935;28;20250;-80
2021/03/11 14:46:54;;;;;;;5.67;2.10;;;20.50;99.90;;;;;;20576877;23;20242;-76
2021/03/11 14:57:03;;;;;;;8.50;2.73;;;20.80;99.90;;;;;;20547071;28;20233;-76
2021/03/11 15:07:06;;;;;;;4.13;2.07;;;21.10;99.90;;;;;;20543536;28;20282;-75
2021/03/11 15:17:10;;;;;;;2.20;1.97;;;20.20;99.90;;;;;;20541112;28;20195;-76
2021/03/11 15:27:13;;;;;;;3.23;2.57;;;20.80;99.90;;;;;;20542806;28;20570;-75
2021/03/11 15:37:16;;;;;;;6.13;2.77;;;21.00;99.90;;;;;;20540190;28;20210;-80
2021/03/11 15:47:22;;;;;;;6.30;1.47;;;20.00;99.90;;;;;;20538832;28;20686;-78
2021/03/11 15:57:26;;;;;;;5.20;2.87;;;19.60;99.90;;;;;;20539834;28;20192;-74
2021/03/11 16:07:31;;;;;;;1.30;1.20;;;19.00;99.90;;;;;;20543243;28;20630;-72
2021/03/11 16:17:35;;;;;;;1.90;1.37;;;18.10;99.90;;;;;;20539865;28;20202;-75
2021/03/11 16:27:39;;;;;;;1.90;1.47;;;17.70;99.90;;;;;;20536273;28;20220;-74
2021/03/11 16:37:44;;;;;;;1.80;1.27;;;17.30;99.90;;;;;;20519077;28;20276;-78
2021/03/11 16:47:48;;;;;;;2.63;1.10;;;16.40;99.90;;;;;;20531086;28;20236;-76
2021/03/11 16:57:51;;;;;;;3.83;2.77;;;16.20;99.90;;;;;;20532227;28;20712;-75
2021/03/11 17:07:55;;;;;;;2.97;2.30;;;16.20;99.90;;;;;;20530769;28;20615;-75
2021/03/11 17:17:59;;;;;;;2.27;2.07;;;15.80;99.90;;;;;;20529556;28;20283;-70
2021/03/11 17:28:02;;;;;;;2.23;1.33;;;15.50;99.90;;;;;;20528271;28;20440;-75
2021/03/11 17:38:06;;;;;;;3.23;1.07;;;15.30;99.90;;;;;;20526691;28;20284;-71
2021/03/11 17:48:10;;;;;;;1.30;1.00;;;15.20;99.90;;;;;;20526907;28;20493;-74
2021/03/11 17:58:13;;;;;;;2.97;1.40;;;15.00;99.90;;;;;;20528176;28;20208;-74
2021/03/11 18:08:16;;;;;;;0.40;0.40;;;15.00;99.90;;;;;;20529628;28;20224;-72
2021/03/11 18:18:20;;;;;;;2.83;1.77;;;15.00;99.90;;;;;;20527856;28;20672;-75
2021/03/11 18:28:23;;;;;;;7.57;4.60;;;15.30;99.90;;;;;;20527519;28;20391;-74
2021/03/11 18:38:27;;;;;;;9.77;3.00;;;15.00;99.90;;;;;;20525413;28;20188;-73
2021/03/11 18:48:30;;;;;;;4.13;1.47;;;14.60;99.90;;;;;;20527741;28;20251;-74
2021/03/11 18:58:35;;;;;;;6.70;1.77;;;14.70;99.90;;;;;;20527057;28;20206;-73
2021/03/11 19:08:37;;;;;;;1.80;1.57;;;14.50;99.90;;;;;;20509201;28;20646;-74
2021/03/11 19:18:41;;;;;;;1.50;1.37;;;14.70;99.90;;;;;;20477548;28;20273;-73
2021/03/11 19:28:43;;;;;;;1.23;1.20;;;14.00;99.90;;;;;;20539892;28;20236;-72
2021/03/11 19:38:47;;;;;;;5.37;1.87;;;14.10;99.90;;;;;;20533005;28;20203;-73
2021/03/11 19:48:49;;;;;;;28.87;3.50;;;14.10;99.90;;;;;;20538092;28;20255;-72
2021/03/11 19:58:53;;;;;;;3.73;1.63;;;13.20;99.90;;;;;;20538316;28;20579;-74
2021/03/11 20:08:56;;;;;;;9.70;2.70;;;13.10;99.90;;;;;;20476815;28;20682;-73
2021/03/11 20:18:59;;;;;;;2.80;2.00;;;13.10;99.90;;;;;;20483589;28;20200;-73
2021/03/11 20:29:03;;;;;;;29.70;1.80;;;12.70;99.90;;;;;;20530157;28;20958;-73
2021/03/11 20:39:10;;;;;;;6.37;2.43;;;12.90;99.90;;;;;;20501859;28;21110;-75
2021/03/11 20:49:12;;;;;;;1.23;0.73;;;12.30;99.90;;;;;;20489871;28;20228;-74
2021/03/11 20:59:17;;;;;;;0.83;0.83;;;12.00;99.90;;;;;;20486813;28;20196;-73
2021/03/11 21:09:20;;;;;;;2.23;2.03;;;12.10;99.90;;;;;;20515682;28;20220;-73
2021/03/11 21:19:23;;;;;;;1.80;1.47;;;11.80;99.90;;;;;;20522502;28;20578;-80
2021/03/11 21:29:27;;;;;;;1.17;1.00;;;11.50;99.90;;;;;;20530974;28;20670;-76
2021/03/11 21:39:31;;;;;;;1.20;1.10;;;11.80;99.90;;;;;;20530404;28;20578;-79
2021/03/11 21:49:34;;;;;;;2.10;1.63;;;11.40;99.90;;;;;;20531280;28;20232;-78
2021/03/11 21:59:37;;;;;;;0.97;0.97;;;11.50;99.90;;;;;;20531966;28;20211;-78
2021/03/11 22:09:40;;;;;;;2.13;1.87;;;11.00;99.90;;;;;;20533691;28;20218;-78
2021/03/11 22:19:44;;;;;;;3.13;1.63;;;11.20;99.90;;;;;;20531608;28;20614;-81
2021/03/11 22:29:46;;;;;;;1.80;1.57;;;11.20;99.90;;;;;;20529578;28;20362;-76
2021/03/11 22:39:51;;;;;;;1.33;1.13;;;11.00;99.90;;;;;;20528508;28;20278;-76
2021/03/11 22:49:54;;;;;;;1.40;1.30;;;11.00;99.90;;;;;;20546022;28;20238;-76
2021/03/11 22:59:57;;;;;;;1.37;0.83;;;10.80;99.90;;;;;;20546786;28;20913;-75
2021/03/11 23:10:00;;;;;;;1.00;0.83;;;10.70;99.90;;;;;;20551754;28;20550;-77
2021/03/11 23:20:09;;;;;;;1.67;1.00;;;10.90;99.90;;;;;;20543442;28;20271;-74
2021/03/11 23:30:15;;;;;;;1.80;1.40;;;11.20;99.90;;;;;;20543160;28;20220;-74
2021/03/11 23:40:20;;;;;;;0.77;0.77;;;11.00;99.90;;;;;;20542603;28;20192;-77
2021/03/11 23:50:24;;;;;;;0.63;0.63;;;10.90;99.90;;;;;;20544118;28;20965;-76
